sensor_id;sensor_type;location;lat;lon;timestamp;pressure;altitude;pressure_sealevel;temperature;humidity
74403;BME280;62837;51.082;13.744;2023-02-18T00:02:19;100591.02;;;9.50;72.15
74403;BME280;62837;51.082;13.744;2023-02-18T00:04:50;100591.91;;;9.50;72.19
74403;BME280;62837;51.082;13.744;2023-02-18T00:07:23;100592.13;;;9.50;71.37
74403;BME280;62837;51.082;13.744;2023-02-18T00:09:54;100589.79;;;9.45;71.37
74403;BME280;62837;51.082;13.744;2023-02-18T00:12:25;100588.58;;;9.48;71.23
74403;BME280;62837;51.082;13.744;2023-02-18T00:14:55;100584.66;;;9.47;71.21
74403;BME280;62837;51.082;13.744;2023-02-18T00:17:26;100574.80;;;9.42;71.12
74403;BME280;62837;51.082;13.744;2023-02-18T00:19:58;100583.88;;;9.43;70.79
74403;BME280;62837;51.082;13.744;2023-02-18T00:22:29;100581.63;;;9.40;70.86
74403;BME280;62837;51.082;13.744;2023-02-18T00:24:59;100588.50;;;9.38;70.78
74403;BME280;62837;51.082;13.744;2023-02-18T00:27:30;100585.10;;;9.38;72.35
74403;BME280;62837;51.082;13.744;2023-02-18T00:30:03;100585.56;;;9.43;72.76
74403;BME280;62837;51.082;13.744;2023-02-18T00:32:36;100584.52;;;9.45;71.66
74403;BME280;62837;51.082;13.744;2023-02-18T00:35:08;100585.59;;;9.44;71.54
74403;BME280;62837;51.082;13.744;2023-02-18T00:37:38;100587.06;;;9.46;71.93
74403;BME280;62837;51.082;13.744;2023-02-18T00:40:10;100587.65;;;9.52;73.64
74403;BME280;62837;51.082;13.744;2023-02-18T00:42:41;100591.46;;;9.60;73.90
74403;BME280;62837;51.082;13.744;2023-02-18T00:45:12;100593.62;;;9.66;71.43
74403;BME280;62837;51.082;13.744;2023-02-18T00:47:42;100589.02;;;9.64;71.00
74403;BME280;62837;51.082;13.744;2023-02-18T00:50:13;100587.96;;;9.67;71.85
74403;BME280;62837;51.082;13.744;2023-02-18T00:52:44;100588.80;;;9.67;71.49
74403;BME280;62837;51.082;13.744;2023-02-18T00:55:15;100589.94;;;9.69;71.28
74403;BME280;62837;51.082;13.744;2023-02-18T00:57:45;100591.31;;;9.70;71.96
74403;BME280;62837;51.082;13.744;2023-02-18T01:00:17;100594.54;;;9.74;72.18
74403;BME280;62837;51.082;13.744;2023-02-18T01:02:48;100592.09;;;9.76;71.16
74403;BME280;62837;51.082;13.744;2023-02-18T01:05:23;100595.02;;;9.78;71.57
74403;BME280;62837;51.082;13.744;2023-02-18T01:07:54;100590.35;;;9.77;70.75
74403;BME280;62837;51.082;13.744;2023-02-18T01:10:25;100590.27;;;9.76;70.10
74403;BME280;62837;51.082;13.744;2023-02-18T01:12:56;100595.95;;;9.77;71.68
74403;BME280;62837;51.082;13.744;2023-02-18T01:15:27;100593.21;;;9.80;70.71
74403;BME280;62837;51.082;13.744;2023-02-18T01:17:58;100604.33;;;9.82;71.09
74403;BME280;62837;51.082;13.744;2023-02-18T01:20:29;100595.89;;;9.87;70.68
74403;BME280;62837;51.082;13.744;2023-02-18T01:22:59;100597.47;;;9.89;70.54
74403;BME280;62837;51.082;13.744;2023-02-18T01:25:30;100607.17;;;9.91;70.72
74403;BME280;62837;51.082;13.744;2023-02-18T01:28:03;100600.98;;;9.92;68.71
74403;BME280;62837;51.082;13.744;2023-02-18T01:30:33;100599.15;;;9.87;68.73
74403;BME280;62837;51.082;13.744;2023-02-18T01:33:06;100601.89;;;9.84;69.12
74403;BME280;62837;51.082;13.744;2023-02-18T01:35:40;100594.46;;;9.80;67.55
74403;BME280;62837;51.082;13.744;2023-02-18T01:38:11;100592.45;;;9.75;68.40
74403;BME280;62837;51.082;13.744;2023-02-18T01:40:48;100588.86;;;9.73;67.63
74403;BME280;62837;51.082;13.744;2023-02-18T01:43:20;100590.34;;;9.68;67.62
74403;BME280;62837;51.082;13.744;2023-02-18T01:46:01;100587.08;;;9.65;68.45
74403;BME280;62837;51.082;13.744;2023-02-18T01:48:35;100587.79;;;9.63;68.49
74403;BME280;62837;51.082;13.744;2023-02-18T01:51:11;100586.55;;;9.62;68.09
74403;BME280;62837;51.082;13.744;2023-02-18T01:53:47;100583.88;;;9.61;68.42
74403;BME280;62837;51.082;13.744;2023-02-18T01:56:25;100585.75;;;9.59;68.46
74403;BME280;62837;51.082;13.744;2023-02-18T01:58:58;100585.94;;;9.58;68.47
74403;BME280;62837;51.082;13.744;2023-02-18T02:01:31;100588.28;;;9.59;68.60
74403;BME280;62837;51.082;13.744;2023-02-18T02:04:03;100586.52;;;9.59;68.84
74403;BME280;62837;51.082;13.744;2023-02-18T02:06:34;100584.14;;;9.61;68.79
74403;BME280;62837;51.082;13.744;2023-02-18T02:09:06;100584.98;;;9.59;68.00
74403;BME280;62837;51.082;13.744;2023-02-18T02:14:49;100593.34;;;9.60;69.00
74403;BME280;62837;51.082;13.744;2023-02-18T02:17:31;100597.77;;;9.61;69.05
74403;BME280;62837;51.082;13.744;2023-02-18T02:26:29;100605.88;;;9.52;68.08
74403;BME280;62837;51.082;13.744;2023-02-18T02:29:32;100602.45;;;9.47;69.27
74403;BME280;62837;51.082;13.744;2023-02-18T02:32:25;100601.63;;;9.47;69.22
74403;BME280;62837;51.082;13.744;2023-02-18T02:34:59;100597.17;;;9.47;69.72
74403;BME280;62837;51.082;13.744;2023-02-18T02:37:39;100598.71;;;9.50;69.01
74403;BME280;62837;51.082;13.744;2023-02-18T02:40:20;100600.80;;;9.44;68.52
74403;BME280;62837;51.082;13.744;2023-02-18T02:43:08;100595.70;;;9.36;68.95
74403;BME280;62837;51.082;13.744;2023-02-18T02:45:50;100601.10;;;9.31;68.82
74403;BME280;62837;51.082;13.744;2023-02-18T02:48:31;100601.98;;;9.25;69.13
74403;BME280;62837;51.082;13.744;2023-02-18T02:51:08;100604.61;;;9.23;69.40
74403;BME280;62837;51.082;13.744;2023-02-18T02:53:43;100602.51;;;9.22;69.55
74403;BME280;62837;51.082;13.744;2023-02-18T02:56:17;100602.71;;;9.21;69.30
74403;BME280;62837;51.082;13.744;2023-02-18T02:58:50;100597.14;;;9.19;69.08
74403;BME280;62837;51.082;13.744;2023-02-18T03:01:39;100594.38;;;9.18;69.33
74403;BME280;62837;51.082;13.744;2023-02-18T03:04:16;100595.59;;;9.15;69.31
74403;BME280;62837;51.082;13.744;2023-02-18T03:07:07;100598.83;;;9.16;69.00
74403;BME280;62837;51.082;13.744;2023-02-18T03:09:57;100604.72;;;9.14;68.71
74403;BME280;62837;51.082;13.744;2023-02-18T03:12:37;100602.50;;;9.15;68.46
74403;BME280;62837;51.082;13.744;2023-02-18T03:15:19;100603.20;;;9.15;68.44
74403;BME280;62837;51.082;13.744;2023-02-18T03:17:57;100602.50;;;9.13;68.16
74403;BME280;62837;51.082;13.744;2023-02-18T03:20:35;100604.71;;;9.11;68.01
74403;BME280;62837;51.082;13.744;2023-02-18T03:23:10;100606.05;;;9.09;67.78
74403;BME280;62837;51.082;13.744;2023-02-18T03:25:42;100613.35;;;9.09;67.75
74403;BME280;62837;51.082;13.744;2023-02-18T03:28:16;100606.02;;;9.13;68.57
74403;BME280;62837;51.082;13.744;2023-02-18T03:30:50;100604.65;;;9.14;67.41
74403;BME280;62837;51.082;13.744;2023-02-18T03:33:36;100600.62;;;9.12;66.98
74403;BME280;62837;51.082;13.744;2023-02-18T03:36:11;100599.33;;;9.10;66.48
74403;BME280;62837;51.082;13.744;2023-02-18T03:38:44;100601.09;;;9.08;66.72
74403;BME280;62837;51.082;13.744;2023-02-18T03:41:18;100598.27;;;9.06;67.12
74403;BME280;62837;51.082;13.744;2023-02-18T03:43:53;100599.52;;;9.05;66.10
74403;BME280;62837;51.082;13.744;2023-02-18T03:46:29;100604.88;;;9.02;66.82
74403;BME280;62837;51.082;13.744;2023-02-18T03:49:01;100602.67;;;9.02;66.46
74403;BME280;62837;51.082;13.744;2023-02-18T03:51:32;100597.64;;;9.00;66.49
74403;BME280;62837;51.082;13.744;2023-02-18T03:54:03;100600.08;;;8.98;66.58
74403;BME280;62837;51.082;13.744;2023-02-18T03:56:35;100600.50;;;8.98;67.20
74403;BME280;62837;51.082;13.744;2023-02-18T03:59:06;100589.66;;;9.01;66.78
74403;BME280;62837;51.082;13.744;2023-02-18T04:01:36;100596.03;;;9.02;66.47
74403;BME280;62837;51.082;13.744;2023-02-18T04:04:08;100602.10;;;9.01;66.55
74403;BME280;62837;51.082;13.744;2023-02-18T04:06:39;100604.34;;;9.00;67.37
74403;BME280;62837;51.082;13.744;2023-02-18T04:09:10;100602.86;;;9.04;66.95
74403;BME280;62837;51.082;13.744;2023-02-18T04:11:41;100601.85;;;9.04;67.46
74403;BME280;62837;51.082;13.744;2023-02-18T04:14:13;100601.29;;;9.07;67.53
74403;BME280;62837;51.082;13.744;2023-02-18T04:16:44;100599.86;;;9.07;67.37
74403;BME280;62837;51.082;13.744;2023-02-18T04:19:15;100603.42;;;9.10;67.62
74403;BME280;62837;51.082;13.744;2023-02-18T04:21:46;100605.91;;;9.10;67.38
74403;BME280;62837;51.082;13.744;2023-02-18T04:24:16;100612.52;;;9.09;67.25
74403;BME280;62837;51.082;13.744;2023-02-18T04:26:47;100604.05;;;9.10;67.98
74403;BME280;62837;51.082;13.744;2023-02-18T04:29:18;100607.13;;;9.11;67.24
74403;BME280;62837;51.082;13.744;2023-02-18T04:31:49;100605.00;;;9.09;67.64
74403;BME280;62837;51.082;13.744;2023-02-18T04:34:20;100611.64;;;9.08;67.58
74403;BME280;62837;51.082;13.744;2023-02-18T04:36:50;100614.38;;;9.08;67.88
74403;BME280;62837;51.082;13.744;2023-02-18T04:39:21;100604.04;;;9.07;67.73
74403;BME280;62837;51.082;13.744;2023-02-18T04:41:52;100595.98;;;9.07;67.80
74403;BME280;62837;51.082;13.744;2023-02-18T04:44:22;100580.77;;;9.07;68.33
74403;BME280;62837;51.082;13.744;2023-02-18T04:46:53;100578.16;;;9.09;67.81
74403;BME280;62837;51.082;13.744;2023-02-18T04:49:24;100587.86;;;9.07;68.11
74403;BME280;62837;51.082;13.744;2023-02-18T04:51:54;100586.00;;;9.02;68.05
74403;BME280;62837;51.082;13.744;2023-02-18T04:54:25;100599.18;;;9.05;68.20
74403;BME280;62837;51.082;13.744;2023-02-18T04:56:56;100608.48;;;9.04;68.48
74403;BME280;62837;51.082;13.744;2023-02-18T04:59:27;100599.45;;;9.02;68.68
74403;BME280;62837;51.082;13.744;2023-02-18T05:01:58;100603.52;;;9.09;68.77
74403;BME280;62837;51.082;13.744;2023-02-18T05:04:28;100607.61;;;9.10;68.94
74403;BME280;62837;51.082;13.744;2023-02-18T05:06:59;100603.25;;;9.12;69.25
74403;BME280;62837;51.082;13.744;2023-02-18T05:09:30;100600.36;;;9.15;69.63
74403;BME280;62837;51.082;13.744;2023-02-18T05:12:01;100599.50;;;9.19;69.74
74403;BME280;62837;51.082;13.744;2023-02-18T05:14:31;100594.98;;;9.21;69.34
74403;BME280;62837;51.082;13.744;2023-02-18T05:17:02;100593.50;;;9.21;69.26
74403;BME280;62837;51.082;13.744;2023-02-18T05:19:33;100600.27;;;9.21;69.27
74403;BME280;62837;51.082;13.744;2023-02-18T05:22:04;100589.66;;;9.19;69.21
74403;BME280;62837;51.082;13.744;2023-02-18T05:24:34;100580.63;;;9.17;69.30
74403;BME280;62837;51.082;13.744;2023-02-18T05:27:05;100581.86;;;9.18;69.25
74403;BME280;62837;51.082;13.744;2023-02-18T05:29:36;100583.42;;;9.17;69.11
74403;BME280;62837;51.082;13.744;2023-02-18T05:32:07;100577.83;;;9.16;70.07
74403;BME280;62837;51.082;13.744;2023-02-18T05:34:37;100576.42;;;9.21;69.76
74403;BME280;62837;51.082;13.744;2023-02-18T05:37:08;100573.66;;;9.23;69.38
74403;BME280;62837;51.082;13.744;2023-02-18T05:39:39;100572.64;;;9.24;70.23
74403;BME280;62837;51.082;13.744;2023-02-18T05:42:10;100568.29;;;9.29;69.74
74403;BME280;62837;51.082;13.744;2023-02-18T05:44:40;100563.45;;;9.28;69.81
74403;BME280;62837;51.082;13.744;2023-02-18T05:47:12;100561.78;;;9.33;69.83
74403;BME280;62837;51.082;13.744;2023-02-18T05:49:43;100567.66;;;9.33;70.13
74403;BME280;62837;51.082;13.744;2023-02-18T05:52:14;100562.44;;;9.38;69.78
74403;BME280;62837;51.082;13.744;2023-02-18T05:54:45;100557.03;;;9.40;69.76
74403;BME280;62837;51.082;13.744;2023-02-18T05:57:15;100553.92;;;9.44;70.47
74403;BME280;62837;51.082;13.744;2023-02-18T05:59:46;100552.33;;;9.50;70.70
74403;BME280;62837;51.082;13.744;2023-02-18T06:02:17;100553.41;;;9.59;70.86
74403;BME280;62837;51.082;13.744;2023-02-18T06:04:48;100551.50;;;9.66;70.43
74403;BME280;62837;51.082;13.744;2023-02-18T06:07:18;100551.08;;;9.70;70.84
74403;BME280;62837;51.082;13.744;2023-02-18T06:09:49;100550.53;;;9.74;70.39
74403;BME280;62837;51.082;13.744;2023-02-18T06:12:20;100552.41;;;9.72;70.53
74403;BME280;62837;51.082;13.744;2023-02-18T06:14:50;100548.32;;;9.73;70.70
74403;BME280;62837;51.082;13.744;2023-02-18T06:17:21;100545.66;;;9.75;70.77
74403;BME280;62837;51.082;13.744;2023-02-18T06:19:52;100550.04;;;9.78;71.01
74403;BME280;62837;51.082;13.744;2023-02-18T06:22:22;100550.69;;;9.80;71.28
74403;BME280;62837;51.082;13.744;2023-02-18T06:24:53;100548.79;;;9.81;71.26
74403;BME280;62837;51.082;13.744;2023-02-18T06:27:24;100546.02;;;9.80;71.56
74403;BME280;62837;51.082;13.744;2023-02-18T06:29:55;100548.44;;;9.80;71.77
74403;BME280;62837;51.082;13.744;2023-02-18T06:32:25;100545.86;;;9.80;71.89
74403;BME280;62837;51.082;13.744;2023-02-18T06:34:56;100545.84;;;9.79;72.08
74403;BME280;62837;51.082;13.744;2023-02-18T06:37:27;100548.72;;;9.78;72.23
74403;BME280;62837;51.082;13.744;2023-02-18T06:39:58;100546.23;;;9.76;72.47
74403;BME280;62837;51.082;13.744;2023-02-18T06:42:28;100540.16;;;9.74;72.41
74403;BME280;62837;51.082;13.744;2023-02-18T06:44:59;100540.21;;;9.71;72.85
74403;BME280;62837;51.082;13.744;2023-02-18T06:47:29;100540.70;;;9.70;73.02
74403;BME280;62837;51.082;13.744;2023-02-18T06:50:00;100537.89;;;9.69;73.23
74403;BME280;62837;51.082;13.744;2023-02-18T06:52:31;100533.33;;;9.69;73.54
74403;BME280;62837;51.082;13.744;2023-02-18T06:55:03;100527.66;;;9.69;73.83
74403;BME280;62837;51.082;13.744;2023-02-18T06:57:34;100528.25;;;9.71;73.85
74403;BME280;62837;51.082;13.744;2023-02-18T07:00:07;100528.36;;;9.72;74.07
74403;BME280;62837;51.082;13.744;2023-02-18T07:02:38;100529.39;;;9.74;74.35
74403;BME280;62837;51.082;13.744;2023-02-18T07:05:09;100526.35;;;9.77;74.34
74403;BME280;62837;51.082;13.744;2023-02-18T07:07:40;100525.02;;;9.78;74.74
74403;BME280;62837;51.082;13.744;2023-02-18T07:10:11;100521.51;;;9.79;75.01
74403;BME280;62837;51.082;13.744;2023-02-18T07:12:42;100518.25;;;9.81;75.45
74403;BME280;62837;51.082;13.744;2023-02-18T07:15:13;100517.69;;;9.84;75.30
74403;BME280;62837;51.082;13.744;2023-02-18T07:17:43;100516.50;;;9.89;75.27
74403;BME280;62837;51.082;13.744;2023-02-18T07:20:14;100511.91;;;9.90;75.58
74403;BME280;62837;51.082;13.744;2023-02-18T07:22:45;100506.38;;;9.91;76.42
74403;BME280;62837;51.082;13.744;2023-02-18T07:25:15;100500.34;;;9.95;76.10
74403;BME280;62837;51.082;13.744;2023-02-18T07:27:46;100497.81;;;9.92;76.03
74403;BME280;62837;51.082;13.744;2023-02-18T07:30:18;100491.58;;;9.86;75.73
74403;BME280;62837;51.082;13.744;2023-02-18T07:32:49;100486.54;;;9.80;75.86
74403;BME280;62837;51.082;13.744;2023-02-18T07:35:20;100487.08;;;9.72;76.33
74403;BME280;62837;51.082;13.744;2023-02-18T07:37:51;100486.20;;;9.62;76.83
74403;BME280;62837;51.082;13.744;2023-02-18T07:40:22;100477.06;;;9.50;76.96
74403;BME280;62837;51.082;13.744;2023-02-18T07:42:53;100477.45;;;9.41;77.41
74403;BME280;62837;51.082;13.744;2023-02-18T07:45:24;100479.94;;;9.34;77.34
74403;BME280;62837;51.082;13.744;2023-02-18T07:47:54;100471.38;;;9.32;77.50
74403;BME280;62837;51.082;13.744;2023-02-18T07:50:25;100468.48;;;9.24;77.97
74403;BME280;62837;51.082;13.744;2023-02-18T07:52:56;100463.83;;;9.20;77.99
74403;BME280;62837;51.082;13.744;2023-02-18T07:55:27;100462.45;;;9.17;77.96
74403;BME280;62837;51.082;13.744;2023-02-18T07:58:18;100458.31;;;9.13;78.51
74403;BME280;62837;51.082;13.744;2023-02-18T08:00:50;100451.86;;;9.08;78.51
74403;BME280;62837;51.082;13.744;2023-02-18T08:03:23;100462.23;;;9.07;78.71
74403;BME280;62837;51.082;13.744;2023-02-18T08:05:55;100445.10;;;9.07;78.77
74403;BME280;62837;51.082;13.744;2023-02-18T08:08:29;100437.96;;;9.07;78.71
74403;BME280;62837;51.082;13.744;2023-02-18T08:11:01;100444.77;;;9.06;79.06
74403;BME280;62837;51.082;13.744;2023-02-18T08:13:46;100425.66;;;9.05;79.18
74403;BME280;62837;51.082;13.744;2023-02-18T08:16:19;100429.84;;;9.05;79.32
74403;BME280;62837;51.082;13.744;2023-02-18T08:18:51;100427.88;;;9.06;79.26
74403;BME280;62837;51.082;13.744;2023-02-18T08:21:23;100421.58;;;9.04;79.29
74403;BME280;62837;51.082;13.744;2023-02-18T08:23:54;100415.62;;;9.05;79.43
74403;BME280;62837;51.082;13.744;2023-02-18T08:26:27;100411.81;;;9.07;79.15
74403;BME280;62837;51.082;13.744;2023-02-18T08:28:58;100412.15;;;9.08;79.15
74403;BME280;62837;51.082;13.744;2023-02-18T08:31:29;100411.65;;;9.11;79.35
74403;BME280;62837;51.082;13.744;2023-02-18T08:34:01;100410.50;;;9.11;79.47
74403;BME280;62837;51.082;13.744;2023-02-18T08:36:33;100395.50;;;9.06;79.57
74403;BME280;62837;51.082;13.744;2023-02-18T08:39:05;100391.85;;;9.11;79.49
74403;BME280;62837;51.082;13.744;2023-02-18T08:41:36;100378.22;;;9.14;79.61
74403;BME280;62837;51.082;13.744;2023-02-18T08:44:07;100380.23;;;9.16;79.82
74403;BME280;62837;51.082;13.744;2023-02-18T08:46:37;100384.48;;;9.18;79.63
74403;BME280;62837;51.082;13.744;2023-02-18T08:49:08;100379.85;;;9.15;80.17
74403;BME280;62837;51.082;13.744;2023-02-18T08:51:39;100366.83;;;9.14;79.86
74403;BME280;62837;51.082;13.744;2023-02-18T08:54:10;100365.06;;;9.17;79.80
74403;BME280;62837;51.082;13.744;2023-02-18T08:56:41;100357.44;;;9.20;79.71
74403;BME280;62837;51.082;13.744;2023-02-18T08:59:12;100355.32;;;9.23;79.68
74403;BME280;62837;51.082;13.744;2023-02-18T09:01:42;100357.94;;;9.24;79.39
74403;BME280;62837;51.082;13.744;2023-02-18T09:04:13;100347.60;;;9.27;79.38
74403;BME280;62837;51.082;13.744;2023-02-18T09:06:44;100341.91;;;9.31;79.76
74403;BME280;62837;51.082;13.744;2023-02-18T09:09:16;100338.16;;;9.33;79.61
74403;BME280;62837;51.082;13.744;2023-02-18T09:11:48;100336.02;;;9.34;79.63
74403;BME280;62837;51.082;13.744;2023-02-18T09:14:19;100333.57;;;9.35;79.76
74403;BME280;62837;51.082;13.744;2023-02-18T09:16:50;100325.02;;;9.33;79.51
74403;BME280;62837;51.082;13.744;2023-02-18T09:19:21;100321.02;;;9.33;79.52
74403;BME280;62837;51.082;13.744;2023-02-18T09:21:52;100318.39;;;9.33;79.63
74403;BME280;62837;51.082;13.744;2023-02-18T09:24:23;100317.25;;;9.34;79.45
74403;BME280;62837;51.082;13.744;2023-02-18T09:26:54;100310.07;;;9.34;79.56
74403;BME280;62837;51.082;13.744;2023-02-18T09:29:25;100312.80;;;9.34;79.64
74403;BME280;62837;51.082;13.744;2023-02-18T09:31:56;100304.27;;;9.35;79.41
74403;BME280;62837;51.082;13.744;2023-02-18T09:34:29;100295.61;;;9.36;79.51
74403;BME280;62837;51.082;13.744;2023-02-18T09:37:00;100286.97;;;9.39;79.58
74403;BME280;62837;51.082;13.744;2023-02-18T09:39:31;100286.11;;;9.40;79.86
74403;BME280;62837;51.082;13.744;2023-02-18T09:42:04;100278.48;;;9.40;79.56
74403;BME280;62837;51.082;13.744;2023-02-18T09:44:39;100269.60;;;9.42;79.84
74403;BME280;62837;51.082;13.744;2023-02-18T09:47:14;100272.70;;;9.43;79.64
74403;BME280;62837;51.082;13.744;2023-02-18T09:49:48;100269.35;;;9.46;79.73
74403;BME280;62837;51.082;13.744;2023-02-18T09:52:23;100268.26;;;9.52;80.10
74403;BME280;62837;51.082;13.744;2023-02-18T09:54:55;100268.34;;;9.75;81.31
74403;BME280;62837;51.082;13.744;2023-02-18T09:57:28;100262.96;;;9.92;79.94
74403;BME280;62837;51.082;13.744;2023-02-18T10:00:11;100260.08;;;9.99;79.61
74403;BME280;62837;51.082;13.744;2023-02-18T10:02:48;100251.93;;;10.02;79.34
74403;BME280;62837;51.082;13.744;2023-02-18T10:05:22;100248.20;;;10.03;79.35
74403;BME280;62837;51.082;13.744;2023-02-18T10:07:55;100244.89;;;10.02;79.41
74403;BME280;62837;51.082;13.744;2023-02-18T10:10:35;100241.00;;;10.02;79.49
74403;BME280;62837;51.082;13.744;2023-02-18T10:13:10;100239.89;;;10.01;79.67
74403;BME280;62837;51.082;13.744;2023-02-18T10:15:43;100234.45;;;10.02;79.83
74403;BME280;62837;51.082;13.744;2023-02-18T10:18:22;100236.16;;;10.01;80.09
74403;BME280;62837;51.082;13.744;2023-02-18T10:20:59;100227.64;;;10.02;80.88
74403;BME280;62837;51.082;13.744;2023-02-18T10:23:32;100228.22;;;10.04;81.24
74403;BME280;62837;51.082;13.744;2023-02-18T10:26:06;100220.44;;;10.06;81.52
74403;BME280;62837;51.082;13.744;2023-02-18T10:28:38;100214.61;;;10.11;81.59
74403;BME280;62837;51.082;13.744;2023-02-18T10:31:12;100213.12;;;10.15;81.96
74403;BME280;62837;51.082;13.744;2023-02-18T10:33:49;100208.35;;;10.20;81.98
74403;BME280;62837;51.082;13.744;2023-02-18T10:36:26;100201.20;;;10.26;81.92
74403;BME280;62837;51.082;13.744;2023-02-18T10:39:15;100197.79;;;10.31;81.95
74403;BME280;62837;51.082;13.744;2023-02-18T10:41:56;100198.86;;;10.36;82.12
74403;BME280;62837;51.082;13.744;2023-02-18T10:44:39;100193.13;;;10.40;82.07
74403;BME280;62837;51.082;13.744;2023-02-18T10:47:19;100192.09;;;10.42;82.23
74403;BME280;62837;51.082;13.744;2023-02-18T10:49:57;100183.32;;;10.43;81.92
74403;BME280;62837;51.082;13.744;2023-02-18T10:52:34;100180.54;;;10.45;81.94
74403;BME280;62837;51.082;13.744;2023-02-18T10:55:09;100169.27;;;10.46;81.98
74403;BME280;62837;51.082;13.744;2023-02-18T10:57:49;100159.44;;;10.48;82.01
74403;BME280;62837;51.082;13.744;2023-02-18T11:00:23;100155.17;;;10.50;82.19
74403;BME280;62837;51.082;13.744;2023-02-18T11:03:14;100141.20;;;10.51;82.22
74403;BME280;62837;51.082;13.744;2023-02-18T11:05:47;100135.33;;;10.53;82.11
74403;BME280;62837;51.082;13.744;2023-02-18T11:08:20;100128.81;;;10.54;82.00
74403;BME280;62837;51.082;13.744;2023-02-18T11:10:53;100123.86;;;10.56;82.08
74403;BME280;62837;51.082;13.744;2023-02-18T11:13:28;100113.27;;;10.59;81.91
74403;BME280;62837;51.082;13.744;2023-02-18T11:16:03;100107.02;;;10.63;81.89
74403;BME280;62837;51.082;13.744;2023-02-18T11:18:39;100099.08;;;10.67;81.66
74403;BME280;62837;51.082;13.744;2023-02-18T11:21:23;100085.61;;;10.70;81.59
74403;BME280;62837;51.082;13.744;2023-02-18T11:23:56;100070.80;;;10.74;81.28
74403;BME280;62837;51.082;13.744;2023-02-18T11:26:31;100070.20;;;10.78;81.37
74403;BME280;62837;51.082;13.744;2023-02-18T11:29:06;100068.49;;;10.80;81.14
74403;BME280;62837;51.082;13.744;2023-02-18T11:31:43;100072.05;;;10.85;81.06
74403;BME280;62837;51.082;13.744;2023-02-18T11:34:21;100070.20;;;10.92;80.68
74403;BME280;62837;51.082;13.744;2023-02-18T11:36:53;100063.08;;;10.98;80.26
74403;BME280;62837;51.082;13.744;2023-02-18T11:39:26;100053.58;;;11.04;79.85
74403;BME280;62837;51.082;13.744;2023-02-18T11:42:00;100045.84;;;11.10;79.70
74403;BME280;62837;51.082;13.744;2023-02-18T11:44:33;100040.63;;;11.15;79.35
74403;BME280;62837;51.082;13.744;2023-02-18T11:47:16;100042.11;;;11.21;78.45
74403;BME280;62837;51.082;13.744;2023-02-18T11:50:03;100038.38;;;11.27;77.98
74403;BME280;62837;51.082;13.744;2023-02-18T11:52:45;100029.98;;;11.30;77.94
74403;BME280;62837;51.082;13.744;2023-02-18T11:55:15;100019.95;;;11.31;77.81
74403;BME280;62837;51.082;13.744;2023-02-18T11:57:49;100017.77;;;11.33;77.49
74403;BME280;62837;51.082;13.744;2023-02-18T12:00:34;100020.34;;;11.36;77.52
74403;BME280;62837;51.082;13.744;2023-02-18T12:03:16;100016.66;;;11.37;77.06
74403;BME280;62837;51.082;13.744;2023-02-18T12:05:48;100011.05;;;11.40;77.12
74403;BME280;62837;51.082;13.744;2023-02-18T12:08:21;100008.30;;;11.42;76.84
74403;BME280;62837;51.082;13.744;2023-02-18T12:10:55;100009.63;;;11.44;76.99
74403;BME280;62837;51.082;13.744;2023-02-18T12:13:32;100008.53;;;11.44;77.26
74403;BME280;62837;51.082;13.744;2023-02-18T12:16:13;100008.90;;;11.42;77.26
74403;BME280;62837;51.082;13.744;2023-02-18T12:19:08;100006.41;;;11.41;77.69
74403;BME280;62837;51.082;13.744;2023-02-18T12:21:54;100014.41;;;11.40;78.13
74403;BME280;62837;51.082;13.744;2023-02-18T12:24:36;100010.92;;;11.37;78.33
74403;BME280;62837;51.082;13.744;2023-02-18T12:27:13;100009.51;;;11.34;77.65
74403;BME280;62837;51.082;13.744;2023-02-18T12:29:59;100008.23;;;11.31;77.09
74403;BME280;62837;51.082;13.744;2023-02-18T12:32:41;100003.05;;;11.29;77.37
74403;BME280;62837;51.082;13.744;2023-02-18T12:35:29;100005.64;;;11.27;77.29
74403;BME280;62837;51.082;13.744;2023-02-18T12:38:27;100001.23;;;11.24;77.04
74403;BME280;62837;51.082;13.744;2023-02-18T12:41:13;100005.57;;;11.23;76.72
74403;BME280;62837;51.082;13.744;2023-02-18T12:43:53;100009.26;;;11.21;76.75
74403;BME280;62837;51.082;13.744;2023-02-18T12:46:43;100003.42;;;11.21;76.81
74403;BME280;62837;51.082;13.744;2023-02-18T12:49:29;100014.05;;;11.18;77.00
74403;BME280;62837;51.082;13.744;2023-02-18T12:52:16;100012.27;;;11.16;77.13
74403;BME280;62837;51.082;13.744;2023-02-18T12:55:17;100007.05;;;11.13;77.39
74403;BME280;62837;51.082;13.744;2023-02-18T12:58:00;100008.46;;;11.11;77.53
74403;BME280;62837;51.082;13.744;2023-02-18T13:00:41;100010.88;;;11.11;77.64
74403;BME280;62837;51.082;13.744;2023-02-18T13:03:38;100004.41;;;11.15;77.41
74403;BME280;62837;51.082;13.744;2023-02-18T13:06:20;100008.77;;;11.20;77.65
74403;BME280;62837;51.082;13.744;2023-02-18T13:09:03;100013.11;;;11.20;77.47
74403;BME280;62837;51.082;13.744;2023-02-18T13:11:46;100005.08;;;11.17;76.73
74403;BME280;62837;51.082;13.744;2023-02-18T13:14:21;100008.41;;;11.13;76.40
74403;BME280;62837;51.082;13.744;2023-02-18T13:16:56;100001.81;;;11.10;76.33
74403;BME280;62837;51.082;13.744;2023-02-18T13:19:31;100001.36;;;11.07;76.07
74403;BME280;62837;51.082;13.744;2023-02-18T13:22:06;99991.39;;;11.03;75.35
74403;BME280;62837;51.082;13.744;2023-02-18T13:24:41;99986.44;;;11.03;74.92
74403;BME280;62837;51.082;13.744;2023-02-18T13:27:18;99991.84;;;11.07;74.31
74403;BME280;62837;51.082;13.744;2023-02-18T13:29:59;99994.27;;;11.12;74.04
74403;BME280;62837;51.082;13.744;2023-02-18T13:32:37;99997.52;;;11.12;73.83
74403;BME280;62837;51.082;13.744;2023-02-18T13:35:18;99996.25;;;11.10;73.37